TimeAKDT,TemperatureF,Dew PointF,Humidity,Sea Level PressureIn,VisibilityMPH,Wind Direction,Wind SpeedMPH,Gust SpeedMPH,PrecipitationIn,Events,Conditions,WindDirDegrees,DateUTC
12:16 AM,35.6,28.4,75,30.12,10.0,NNE,3.5,-,N/A,,Overcast,30,2012-10-03 08:16:00
12:36 AM,35.6,26.6,70,30.13,10.0,Calm,Calm,-,N/A,,Overcast,0,2012-10-03 08:36:00
12:56 AM,35.6,26.6,70,30.13,10.0,Calm,Calm,-,N/A,,Overcast,0,2012-10-03 08:56:00
1:16 AM,33.8,28.4,81,30.13,10.0,Calm,Calm,-,N/A,,Overcast,0,2012-10-03 09:16:00
1:36 AM,33.8,26.6,75,30.13,10.0,Calm,Calm,-,N/A,,Overcast,0,2012-10-03 09:36:00
1:56 AM,33.8,26.6,75,30.14,10.0,Calm,Calm,-,N/A,,Scattered Clouds,0,2012-10-03 09:56:00
2:16 AM,32.0,28.4,87,30.14,10.0,Calm,Calm,-,N/A,,Mostly Cloudy,0,2012-10-03 10:16:00
2:36 AM,32.0,28.4,87,30.14,10.0,Calm,Calm,-,N/A,,Overcast,0,2012-10-03 10:36:00
2:56 AM,32.0,28.4,87,30.14,10.0,Calm,Calm,-,N/A,,Overcast,0,2012-10-03 10:56:00
3:16 AM,30.2,26.6,86,30.14,10.0,Calm,Calm,-,N/A,,Overcast,0,2012-10-03 11:16:00
3:36 AM,30.2,26.6,86,30.14,10.0,Calm,Calm,-,N/A,,Overcast,0,2012-10-03 11:36:00
3:56 AM,32.0,26.6,80,30.14,10.0,Calm,Calm,-,N/A,,Overcast,0,2012-10-03 11:56:00
4:16 AM,32.0,26.6,80,30.13,10.0,Calm,Calm,-,N/A,,Overcast,0,2012-10-03 12:16:00
4:36 AM,32.0,26.6,80,30.14,10.0,Calm,Calm,-,N/A,,Mostly Cloudy,0,2012-10-03 12:36:00
4:56 AM,30.2,26.6,86,30.14,10.0,Calm,Calm,-,N/A,,Partly Cloudy,0,2012-10-03 12:56:00
5:16 AM,30.2,26.6,86,30.15,10.0,Calm,Calm,-,N/A,,Mostly Cloudy,0,2012-10-03 13:16:00
5:36 AM,30.2,26.6,86,30.14,10.0,Calm,Calm,-,N/A,,Overcast,0,2012-10-03 13:36:00
5:56 AM,30.2,28.4,93,30.15,10.0,Calm,Calm,-,N/A,,Overcast,0,2012-10-03 13:56:00
6:16 AM,30.2,28.4,93,30.16,10.0,West,3.5,-,N/A,,Overcast,280,2012-10-03 14:16:00
6:36 AM,32.0,28.4,87,30.16,10.0,Calm,Calm,-,N/A,,Overcast,0,2012-10-03 14:36:00
6:56 AM,32.0,28.4,87,30.16,10.0,Calm,Calm,-,N/A,,Overcast,0,2012-10-03 14:56:00
7:16 AM,32.0,28.4,87,30.16,10.0,Calm,Calm,-,N/A,,Overcast,0,2012-10-03 15:16:00
7:36 AM,32.0,28.4,87,30.16,10.0,Calm,Calm,-,N/A,,Overcast,0,2012-10-03 15:36:00
7:56 AM,30.2,28.4,93,30.15,10.0,Calm,Calm,-,N/A,,Overcast,0,2012-10-03 15:56:00
8:16 AM,32.0,28.4,87,30.15,10.0,Calm,Calm,-,N/A,,Overcast,0,2012-10-03 16:16:00
8:36 AM,30.2,28.4,93,30.14,10.0,Calm,Calm,-,N/A,,Mostly Cloudy,0,2012-10-03 16:36:00
8:56 AM,30.2,26.6,86,30.15,10.0,Calm,Calm,-,N/A,,Partly Cloudy,0,2012-10-03 16:56:00
9:16 AM,32.0,28.4,87,30.16,10.0,Calm,Calm,-,N/A,,Partly Cloudy,0,2012-10-03 17:16:00
9:36 AM,33.8,28.4,81,30.16,10.0,Calm,Calm,-,N/A,,Partly Cloudy,0,2012-10-03 17:36:00
9:56 AM,33.8,28.4,81,30.16,10.0,Calm,Calm,-,N/A,,Partly Cloudy,0,2012-10-03 17:56:00
10:16 AM,33.8,28.4,81,30.16,10.0,Calm,Calm,-,N/A,,Partly Cloudy,0,2012-10-03 18:16:00
10:36 AM,33.8,28.4,81,30.16,10.0,Calm,Calm,-,N/A,,Partly Cloudy,0,2012-10-03 18:36:00
10:56 AM,35.6,30.2,81,30.16,10.0,Calm,Calm,-,N/A,,Scattered Clouds,0,2012-10-03 18:56:00
11:16 AM,35.6,30.2,81,30.16,10.0,Calm,Calm,-,N/A,,Scattered Clouds,0,2012-10-03 19:16:00
11:36 AM,37.4,30.2,75,30.16,10.0,Calm,Calm,-,N/A,,Scattered Clouds,0,2012-10-03 19:36:00
11:56 AM,39.2,30.2,70,30.17,10.0,Calm,Calm,-,N/A,,Scattered Clouds,0,2012-10-03 19:56:00
12:16 PM,39.2,28.4,65,30.17,10.0,Calm,Calm,-,N/A,,Scattered Clouds,0,2012-10-03 20:16:00
12:36 PM,41.0,30.2,65,30.18,10.0,WNW,4.6,-,N/A,,Scattered Clouds,300,2012-10-03 20:36:00
12:56 PM,41.0,28.4,61,30.17,10.0,Calm,Calm,-,N/A,,Partly Cloudy,0,2012-10-03 20:56:00
1:16 PM,42.8,30.2,61,30.16,10.0,Calm,Calm,-,N/A,,Partly Cloudy,0,2012-10-03 21:16:00
1:36 PM,44.6,28.4,53,30.16,10.0,NW,3.5,-,N/A,,Partly Cloudy,320,2012-10-03 21:36:00
1:56 PM,44.6,28.4,53,30.16,10.0,Calm,Calm,-,N/A,,Partly Cloudy,0,2012-10-03 21:56:00
2:16 PM,44.6,28.4,53,30.15,10.0,Calm,Calm,-,N/A,,Partly Cloudy,0,2012-10-03 22:16:00
2:36 PM,46.4,28.4,50,30.15,10.0,Calm,Calm,-,N/A,,Partly Cloudy,0,2012-10-03 22:36:00
2:56 PM,46.4,28.4,50,30.15,10.0,Calm,Calm,-,N/A,,Partly Cloudy,0,2012-10-03 22:56:00
3:16 PM,48.2,28.4,46,30.13,10.0,Calm,Calm,-,N/A,,Partly Cloudy,0,2012-10-03 23:16:00
3:36 PM,48.2,28.4,46,30.13,10.0,Calm,Calm,-,N/A,,Partly Cloudy,0,2012-10-03 23:36:00
3:56 PM,48.2,26.6,43,30.12,10.0,SE,3.5,-,N/A,,Partly Cloudy,140,2012-10-03 23:56:00
4:16 PM,48.2,26.6,43,30.11,10.0,SE,3.5,-,N/A,,Partly Cloudy,140,2012-10-04 00:16:00
4:36 PM,48.2,28.4,46,30.11,10.0,SE,3.5,-,N/A,,Partly Cloudy,130,2012-10-04 00:36:00
4:56 PM,48.2,26.6,43,30.10,10.0,Calm,Calm,-,N/A,,Partly Cloudy,0,2012-10-04 00:56:00
5:16 PM,48.2,26.6,43,30.10,10.0,Calm,Calm,-,N/A,,Partly Cloudy,0,2012-10-04 01:16:00
5:36 PM,48.2,26.6,43,30.09,10.0,East,3.5,-,N/A,,Clear,80,2012-10-04 01:36:00
5:56 PM,48.2,26.6,43,30.09,10.0,Calm,Calm,-,N/A,,Clear,0,2012-10-04 01:56:00
6:16 PM,46.4,26.6,46,30.09,10.0,Calm,Calm,-,N/A,,Clear,0,2012-10-04 02:16:00
6:36 PM,41.0,30.2,65,30.08,10.0,Calm,Calm,-,N/A,,Clear,0,2012-10-04 02:36:00
6:56 PM,39.2,28.4,65,30.08,10.0,Calm,Calm,-,N/A,,Clear,0,2012-10-04 02:56:00
7:16 PM,37.4,26.6,65,30.08,10.0,Calm,Calm,-,N/A,,Clear,0,2012-10-04 03:16:00
7:36 PM,35.6,26.6,70,30.07,10.0,NE,3.5,-,N/A,,Clear,40,2012-10-04 03:36:00
7:56 PM,35.6,24.8,65,30.06,10.0,NE,4.6,-,N/A,,Clear,40,2012-10-04 03:56:00
8:16 PM,35.6,26.6,70,30.06,10.0,NE,3.5,-,N/A,,Clear,40,2012-10-04 04:16:00
8:36 PM,35.6,28.4,75,30.05,10.0,NE,5.8,-,N/A,,Clear,40,2012-10-04 04:36:00
8:56 PM,35.6,26.6,70,30.05,10.0,NE,4.6,-,N/A,,Clear,50,2012-10-04 04:56:00
9:16 PM,35.6,26.6,70,30.04,10.0,NE,4.6,-,N/A,,Clear,50,2012-10-04 05:16:00
9:36 PM,35.6,28.4,75,30.04,10.0,NE,3.5,-,N/A,,Clear,50,2012-10-04 05:36:00
9:56 PM,35.6,26.6,70,30.04,10.0,ENE,3.5,-,N/A,,Clear,60,2012-10-04 05:56:00
10:16 PM,33.8,28.4,81,30.03,10.0,NE,4.6,-,N/A,,Clear,40,2012-10-04 06:16:00
10:36 PM,33.8,26.6,75,30.03,10.0,NE,5.8,-,N/A,,Clear,50,2012-10-04 06:36:00
10:56 PM,33.8,28.4,81,30.03,10.0,NE,4.6,-,N/A,,Clear,50,2012-10-04 06:56:00
11:16 PM,33.8,26.6,75,30.02,10.0,ENE,3.5,-,N/A,,Clear,60,2012-10-04 07:16:00
11:36 PM,32.0,26.6,80,30.02,10.0,NNE,3.5,-,N/A,,Clear,30,2012-10-04 07:36:00
11:56 PM,32.0,26.6,80,30.02,10.0,NE,3.5,-,N/A,,Clear,50,2012-10-04 07:56:00